createdAt,value
2023-12-28T04:26:44.532Z,97.20
2023-12-28T04:29:11.392Z,96.90
2023-12-28T04:31:42.614Z,96.80
2023-12-28T04:34:10.406Z,96.80
2023-12-28T04:36:41.312Z,96.90
2023-12-28T04:39:08.088Z,96.50
2023-12-28T04:41:34.806Z,96.50
2023-12-28T04:44:01.648Z,96.60
2023-12-28T04:46:28.383Z,96.50
2023-12-28T04:48:55.299Z,96.70
2023-12-28T04:51:22.097Z,97.00
2023-12-28T04:53:48.973Z,96.80
2023-12-28T04:56:19.968Z,97.20
2023-12-28T04:58:47.750Z,96.80
2023-12-28T05:01:14.747Z,96.70
2023-12-28T05:03:41.782Z,97.00
2023-12-28T05:06:08.639Z,97.10
2023-12-28T05:08:35.500Z,97.10
2023-12-28T05:11:02.386Z,97.30
2023-12-28T05:13:29.280Z,97.40
2023-12-28T05:15:56.278Z,97.60
2023-12-28T05:18:23.406Z,97.60
2023-12-28T05:20:50.387Z,97.80
2023-12-28T05:23:17.279Z,97.90
2023-12-28T05:25:44.217Z,97.80
2023-12-28T05:28:11.249Z,97.90
2023-12-28T05:30:38.814Z,98.00
2023-12-28T05:33:05.981Z,98.10
2023-12-28T05:35:32.895Z,97.90
2023-12-28T05:37:59.982Z,98.10
2023-12-28T05:40:27.079Z,98.10
2023-12-28T05:42:53.986Z,98.10
2023-12-28T05:45:20.906Z,97.90
2023-12-28T05:47:47.852Z,97.70
2023-12-28T05:50:14.835Z,97.80
2023-12-28T05:52:41.719Z,98.00
2023-12-28T05:55:09.211Z,98.30
2023-12-28T05:57:36.002Z,98.30
2023-12-28T06:00:04.992Z,98.50
2023-12-28T06:02:32.461Z,98.40
2023-12-28T06:04:59.474Z,98.50
2023-12-28T06:07:27.010Z,98.20
2023-12-28T06:09:53.898Z,98.10
2023-12-28T06:12:20.755Z,98.20
2023-12-28T06:14:47.639Z,98.10
2023-12-28T06:17:16.495Z,98.20
2023-12-28T06:19:43.407Z,98.20
2023-12-28T06:22:10.221Z,98.20
2023-12-28T06:24:40.744Z,98.10
2023-12-28T06:27:07.924Z,98.30
2023-12-28T06:29:34.848Z,98.00
2023-12-28T06:32:01.642Z,98.10
2023-12-28T06:34:28.604Z,98.30
2023-12-28T06:36:55.555Z,98.40
2023-12-28T06:39:22.417Z,98.30
2023-12-28T06:41:49.982Z,98.40
2023-12-28T06:44:16.705Z,98.30
2023-12-28T06:46:43.458Z,98.30
2023-12-28T06:49:11.731Z,98.30
2023-12-28T06:51:39.049Z,98.10
2023-12-28T06:54:05.852Z,97.90
2023-12-28T06:56:32.627Z,97.90
2023-12-28T06:58:59.447Z,97.70
2023-12-28T07:01:26.471Z,97.70
2023-12-28T07:03:53.407Z,97.50
2023-12-28T07:06:20.273Z,97.70
2023-12-28T07:08:47.120Z,97.60
2023-12-28T07:11:13.890Z,97.70
2023-12-28T07:13:40.833Z,97.70
2023-12-28T07:16:09.009Z,97.70
2023-12-28T07:18:35.998Z,97.60
2023-12-28T07:21:02.837Z,97.60
2023-12-28T07:23:29.758Z,97.40
2023-12-28T07:25:56.613Z,97.50
2023-12-28T07:28:23.492Z,97.30
2023-12-28T07:30:50.549Z,97.40
2023-12-28T07:33:17.746Z,97.40
2023-12-28T07:35:44.682Z,97.40
2023-12-28T07:38:11.582Z,97.40
2023-12-28T07:40:38.769Z,97.20
2023-12-28T07:43:05.873Z,97.20
2023-12-28T07:45:33.333Z,96.70
2023-12-28T07:50:32.199Z,96.40
2023-12-28T07:52:59.129Z,96.70
2023-12-28T07:55:27.266Z,96.40
2023-12-28T07:57:54.236Z,96.40
2023-12-28T08:00:21.260Z,96.20
2023-12-28T08:02:48.172Z,95.80
2023-12-28T08:05:15.142Z,95.90
2023-12-28T08:07:41.995Z,95.70
2023-12-28T08:10:09.233Z,95.80
2023-12-28T08:12:36.148Z,95.80
2023-12-28T08:15:03.168Z,95.80
2023-12-28T08:17:30.058Z,95.70
2023-12-28T08:19:57.064Z,95.80
2023-12-28T08:22:24.026Z,95.80
2023-12-28T08:24:50.975Z,95.80
2023-12-28T08:27:17.914Z,95.70
2023-12-28T08:29:44.866Z,95.60
2023-12-28T08:32:12.538Z,95.80
2023-12-28T08:34:40.137Z,96.00
2023-12-28T08:37:07.702Z,95.90
2023-12-28T08:39:34.913Z,95.90
2023-12-28T08:42:02.323Z,95.80
2023-12-28T08:44:29.300Z,95.60
2023-12-28T08:46:56.293Z,95.70
2023-12-28T08:49:23.745Z,95.60
2023-12-28T08:51:51.688Z,95.80
2023-12-28T08:54:19.026Z,95.80
2023-12-28T08:56:48.130Z,95.90
2023-12-28T08:59:16.597Z,96.00
2023-12-28T09:01:43.537Z,95.60
2023-12-28T09:04:10.435Z,95.60
2023-12-28T09:06:37.264Z,95.50
2023-12-28T09:09:05.051Z,95.60
2023-12-28T09:11:31.993Z,95.50
2023-12-28T09:13:59.263Z,95.50
2023-12-28T09:16:26.211Z,95.50
2023-12-28T09:18:53.184Z,95.60
2023-12-28T09:21:20.314Z,95.80
2023-12-28T09:23:47.305Z,95.90
2023-12-28T09:26:14.343Z,96.00
2023-12-28T09:28:41.962Z,96.10
2023-12-28T09:31:09.100Z,95.80
2023-12-28T09:33:36.314Z,96.00
2023-12-28T09:36:06.534Z,96.00
2023-12-28T09:38:33.487Z,96.00
2023-12-28T09:41:16.360Z,96.10
2023-12-28T09:43:59.242Z,96.10
2023-12-28T09:46:27.908Z,96.00
2023-12-28T09:48:58.251Z,96.30
2023-12-28T09:51:27.016Z,96.20
2023-12-28T09:53:54.560Z,96.20
2023-12-28T09:56:21.984Z,96.50
2023-12-28T09:58:52.261Z,96.30
2023-12-28T10:01:20.183Z,96.10
2023-12-28T10:03:47.302Z,96.40
2023-12-28T10:06:16.507Z,96.50
2023-12-28T10:08:49.175Z,96.60
2023-12-28T10:11:17.426Z,96.50
2023-12-28T10:13:44.855Z,96.50
2023-12-28T10:16:12.892Z,96.60
2023-12-28T10:18:46.710Z,96.90
2023-12-28T10:21:14.090Z,97.30
2023-12-28T10:23:41.259Z,97.60
2023-12-28T10:26:09.807Z,98.00
2023-12-28T10:28:40.940Z,98.10
2023-12-28T10:31:09.334Z,98.40
2023-12-28T10:33:37.729Z,98.60
2023-12-28T10:36:09.957Z,99.10
2023-12-28T10:38:38.903Z,98.80
2023-12-28T10:41:08.827Z,99.00
2023-12-28T10:44:09.549Z,99.30
2023-12-28T10:46:44.445Z,99.30
2023-12-28T10:49:18.100Z,99.10
2023-12-28T10:51:49.778Z,99.30
2023-12-28T10:54:28.541Z,99.30
2023-12-28T10:57:09.517Z,99.20
2023-12-28T10:59:54.862Z,99.10
2023-12-28T11:02:26.380Z,99.10
2023-12-28T11:04:55.406Z,98.80
2023-12-28T11:07:22.725Z,98.80
2023-12-28T11:09:50.704Z,98.60
2023-12-28T11:12:21.590Z,98.60
2023-12-28T11:14:49.820Z,98.80
2023-12-28T11:17:17.078Z,98.60
2023-12-28T11:19:44.320Z,98.80
2023-12-28T11:22:11.857Z,98.80
2023-12-28T11:24:39.271Z,98.70
2023-12-28T11:27:10.150Z,98.90
2023-12-28T11:29:38.386Z,99.00
2023-12-28T11:32:05.720Z,98.90
2023-12-28T11:34:37.224Z,99.00
2023-12-28T11:37:15.591Z,99.00
2023-12-28T11:39:45.798Z,98.90
2023-12-28T11:42:13.391Z,98.80
2023-12-28T11:44:48.243Z,98.80
2023-12-28T11:47:16.555Z,99.00
2023-12-28T11:49:47.287Z,98.70
2023-12-28T11:52:27.370Z,98.70
2023-12-28T11:54:55.449Z,98.40
2023-12-28T11:57:22.804Z,98.50
2023-12-28T12:00:01.082Z,98.30
2023-12-28T12:02:28.199Z,98.40
2023-12-28T12:05:03.154Z,98.40
2023-12-28T12:07:30.873Z,98.30
2023-12-28T12:10:01.527Z,98.30
2023-12-28T12:12:29.166Z,98.20
2023-12-28T12:14:57.788Z,98.10
2023-12-28T12:17:26.734Z,98.10
2023-12-28T12:19:56.777Z,98.10
2023-12-28T12:22:26.314Z,98.00
2023-12-28T12:24:57.259Z,97.90
2023-12-28T12:27:24.110Z,97.70
2023-12-28T12:29:51.045Z,97.70
2023-12-28T12:32:18.471Z,97.60
2023-12-28T12:34:45.498Z,97.50
2023-12-28T12:37:12.651Z,97.10
2023-12-28T12:39:39.677Z,97.10
2023-12-28T12:42:06.943Z,97.40
2023-12-28T12:44:34.240Z,97.40
2023-12-28T12:47:01.243Z,97.30
2023-12-28T12:49:28.523Z,97.30
2023-12-28T12:51:56.566Z,97.40
2023-12-28T12:54:24.121Z,97.50
2023-12-28T12:56:51.950Z,97.60
2023-12-28T12:59:19.186Z,97.90
2023-12-28T13:01:51.824Z,98.20
2023-12-28T13:04:18.997Z,98.50
2023-12-28T13:06:46.394Z,98.70
2023-12-28T13:09:13.512Z,98.90
2023-12-28T13:11:40.621Z,99.00
2023-12-28T13:14:07.558Z,99.40
2023-12-28T13:16:34.455Z,99.60
2023-12-28T13:19:01.483Z,99.90
2023-12-28T13:21:28.579Z,99.90
2023-12-28T13:23:55.458Z,99.90
2023-12-28T13:26:22.436Z,99.90
2023-12-28T13:28:49.397Z,99.90
2023-12-28T13:31:16.594Z,99.90
2023-12-28T13:33:43.769Z,99.90
2023-12-28T13:36:10.756Z,99.90
2023-12-28T13:38:37.612Z,99.90
2023-12-28T13:41:04.965Z,99.90
2023-12-28T13:43:31.918Z,99.90
2023-12-28T13:45:59.265Z,99.90
2023-12-28T13:48:26.249Z,99.90
2023-12-28T13:50:53.341Z,99.90
2023-12-28T13:53:20.225Z,99.90
2023-12-28T13:55:47.069Z,99.90
2023-12-28T13:58:14.057Z,99.90
2023-12-28T14:00:41.642Z,99.90
2023-12-28T14:03:08.815Z,99.90
2023-12-28T14:05:36.893Z,99.90
2023-12-28T14:08:04.774Z,99.90
2023-12-28T14:10:31.832Z,99.90
2023-12-28T14:12:59.094Z,99.90
2023-12-28T14:15:26.295Z,99.90
2023-12-28T14:17:53.429Z,99.90
2023-12-28T14:20:20.520Z,99.90
2023-12-28T14:22:47.686Z,99.90
2023-12-28T14:25:15.308Z,99.90
2023-12-28T14:27:42.625Z,99.90
2023-12-28T14:30:11.716Z,99.90
2023-12-28T14:32:39.237Z,99.90
2023-12-28T14:35:07.251Z,99.90
2023-12-28T14:37:34.349Z,99.90
2023-12-28T14:40:07.369Z,99.90
2023-12-28T14:42:35.159Z,99.90
2023-12-28T14:45:04.988Z,99.90
2023-12-28T14:47:31.986Z,99.90
2023-12-28T14:49:59.103Z,99.90
2023-12-28T14:52:26.145Z,99.90
2023-12-28T14:54:55.283Z,99.90
2023-12-28T14:57:24.059Z,99.90
2023-12-28T14:59:51.595Z,99.90
2023-12-28T15:02:18.655Z,99.90
2023-12-28T15:04:46.184Z,99.90
2023-12-28T15:07:13.267Z,99.90
2023-12-28T15:09:40.156Z,99.90
2023-12-28T15:12:07.248Z,99.90
2023-12-28T15:14:34.472Z,99.90
2023-12-28T15:17:01.654Z,99.90
2023-12-28T15:19:28.891Z,99.90
2023-12-28T15:21:56.166Z,99.90
2023-12-28T15:24:23.475Z,99.90
2023-12-28T15:26:50.431Z,99.90
2023-12-28T15:29:17.297Z,99.90
2023-12-28T15:31:44.406Z,99.90
2023-12-28T15:34:11.362Z,99.90
2023-12-28T15:36:38.383Z,99.90
2023-12-28T15:39:06.639Z,99.90
2023-12-28T15:41:34.166Z,99.90
2023-12-28T15:44:01.004Z,99.90
2023-12-28T15:46:28.056Z,99.90
2023-12-28T15:48:55.214Z,99.90
2023-12-28T15:51:23.125Z,99.90
2023-12-28T15:53:50.130Z,99.90
2023-12-28T15:56:19.612Z,99.90
2023-12-28T15:58:47.204Z,99.90
2023-12-28T16:01:14.510Z,99.90
2023-12-28T16:03:41.666Z,99.90
2023-12-28T16:06:12.226Z,99.90
2023-12-28T16:08:39.246Z,99.90
2023-12-28T16:11:07.052Z,99.90
2023-12-28T16:13:35.384Z,99.90
2023-12-28T16:16:02.910Z,99.90
2023-12-28T16:18:30.500Z,99.90
2023-12-28T16:20:58.044Z,99.90
2023-12-28T16:23:25.386Z,99.90
2023-12-28T16:25:52.370Z,99.90
2023-12-28T16:28:19.529Z,99.90
2023-12-28T16:30:46.499Z,99.90
2023-12-28T16:33:13.471Z,99.90
2023-12-28T16:35:40.405Z,99.90
2023-12-28T16:38:07.287Z,99.90
2023-12-28T16:40:34.132Z,99.90
2023-12-28T16:43:01.069Z,99.90
2023-12-28T16:45:27.917Z,99.90
2023-12-28T16:47:54.934Z,99.90
2023-12-28T16:50:25.329Z,99.90
2023-12-28T16:52:55.257Z,99.90
2023-12-28T16:55:22.259Z,99.90
2023-12-28T16:57:49.527Z,99.90
2023-12-28T17:00:16.771Z,99.90
2023-12-28T17:02:43.679Z,99.90
2023-12-28T17:05:11.735Z,99.90
2023-12-28T17:07:38.903Z,99.90
2023-12-28T17:10:06.493Z,99.90
2023-12-28T17:12:42.689Z,99.90
2023-12-28T17:15:11.003Z,99.90
2023-12-28T17:17:40.638Z,99.90
2023-12-28T17:20:10.119Z,99.90
2023-12-28T17:22:45.188Z,99.90
2023-12-28T17:25:14.848Z,99.90
2023-12-28T17:27:46.203Z,99.90
2023-12-28T17:30:15.944Z,99.90
2023-12-28T17:32:42.942Z,99.90
2023-12-28T17:35:10.001Z,99.90
2023-12-28T17:37:37.161Z,99.90
2023-12-28T17:40:04.667Z,99.90
2023-12-28T17:42:33.161Z,99.90
2023-12-28T17:45:01.591Z,99.90
2023-12-28T17:47:36.152Z,99.90
2023-12-28T17:50:03.937Z,99.90
2023-12-28T17:52:33.590Z,99.90
2023-12-28T17:55:00.637Z,99.90
2023-12-28T17:57:27.513Z,99.90
2023-12-28T17:59:54.450Z,99.90
2023-12-28T18:02:21.419Z,99.90
2023-12-28T18:04:48.597Z,99.90
2023-12-28T18:07:15.609Z,99.90
2023-12-28T18:09:42.717Z,99.90
2023-12-28T18:12:10.664Z,99.90
2023-12-28T18:14:38.720Z,99.90
2023-12-28T18:17:05.614Z,99.90
2023-12-28T18:19:32.789Z,99.90
2023-12-28T18:21:59.867Z,99.90
2023-12-28T18:24:27.208Z,99.90
2023-12-28T18:26:54.197Z,99.90
2023-12-28T18:29:21.099Z,99.90
2023-12-28T18:31:48.289Z,99.90
2023-12-28T18:34:15.447Z,99.90
2023-12-28T18:36:42.679Z,99.90
2023-12-28T18:39:10.877Z,99.90
2023-12-28T18:41:37.802Z,99.90
2023-12-28T18:44:04.741Z,99.90
2023-12-28T18:46:31.597Z,99.90
2023-12-28T18:48:59.699Z,99.90
2023-12-28T18:51:26.741Z,99.90
2023-12-28T18:53:53.673Z,99.90
2023-12-28T18:56:20.553Z,99.90
2023-12-28T18:58:47.543Z,99.90
2023-12-28T19:01:16.177Z,99.90
2023-12-28T19:03:47.170Z,99.90
2023-12-28T19:06:16.689Z,99.90
2023-12-28T19:08:43.728Z,99.90
2023-12-28T19:11:17.130Z,99.90
2023-12-28T19:13:44.432Z,99.90
2023-12-28T19:16:24.991Z,99.90
2023-12-28T19:18:52.472Z,99.90
2023-12-28T19:21:22.064Z,99.90
2023-12-28T19:23:49.885Z,99.90
2023-12-28T19:26:19.754Z,99.90
2023-12-28T19:28:47.266Z,99.90
2023-12-28T19:31:15.882Z,99.90
2023-12-28T19:33:43.144Z,99.90
2023-12-28T19:36:10.142Z,99.90
2023-12-28T19:38:36.903Z,99.90
2023-12-28T19:41:03.831Z,99.90
2023-12-28T19:43:30.576Z,99.90
2023-12-28T19:45:57.445Z,99.90
2023-12-28T19:48:24.886Z,99.90
2023-12-28T19:50:51.769Z,99.90
2023-12-28T19:53:19.563Z,99.90
2023-12-28T20:00:42.433Z,99.90
2023-12-28T20:03:09.290Z,99.90
2023-12-28T20:05:36.108Z,99.90
2023-12-28T20:08:04.176Z,99.90
2023-12-28T20:10:34.109Z,99.90
2023-12-28T20:13:00.996Z,99.90
2023-12-28T20:15:27.918Z,99.90
2023-12-28T20:17:55.530Z,99.90
2023-12-28T20:20:22.918Z,99.90
2023-12-28T20:22:50.034Z,99.90
2023-12-28T20:25:17.765Z,99.90
2023-12-28T20:27:44.893Z,99.90
2023-12-28T20:30:12.515Z,99.90
2023-12-28T20:32:40.018Z,99.90
2023-12-28T20:35:06.919Z,99.90
2023-12-28T20:37:33.657Z,99.90
2023-12-28T20:40:00.564Z,99.90
2023-12-28T20:42:27.466Z,99.90
2023-12-28T20:44:55.338Z,99.90
2023-12-28T20:47:22.392Z,99.90
2023-12-28T20:49:49.218Z,99.90
2023-12-28T20:52:16.251Z,99.90
2023-12-28T20:54:43.214Z,99.90
2023-12-28T20:57:10.023Z,99.90
2023-12-28T20:59:41.940Z,99.90
2023-12-28T21:02:08.810Z,99.90
2023-12-28T21:04:36.292Z,99.90
2023-12-28T21:07:03.459Z,99.90
2023-12-28T21:09:30.675Z,99.90
2023-12-28T21:12:01.277Z,99.90
2023-12-28T21:14:29.126Z,99.90
2023-12-28T21:16:56.063Z,99.90
2023-12-28T21:19:23.145Z,99.90
2023-12-28T21:21:50.135Z,99.90
2023-12-28T21:24:16.930Z,99.90
2023-12-28T21:26:43.727Z,99.90
2023-12-28T21:29:10.500Z,99.90
2023-12-28T21:31:37.443Z,99.90
2023-12-28T21:34:04.531Z,99.90
2023-12-28T21:36:34.349Z,99.90
2023-12-28T21:39:01.301Z,99.90
2023-12-28T21:41:28.081Z,99.90
2023-12-28T21:43:54.989Z,99.90
2023-12-28T21:46:23.039Z,99.90
2023-12-28T21:48:50.091Z,99.90
2023-12-28T21:51:17.016Z,99.90
2023-12-28T21:53:43.794Z,99.90
2023-12-28T21:56:11.295Z,99.90
2023-12-28T21:58:38.148Z,99.90
2023-12-28T22:01:05.168Z,99.90
2023-12-28T22:03:32.143Z,99.90
2023-12-28T22:06:02.022Z,99.90
2023-12-28T22:08:28.991Z,99.90
2023-12-28T22:10:55.790Z,99.90
2023-12-28T22:13:22.764Z,99.90
2023-12-28T22:15:56.462Z,99.90
2023-12-28T22:18:23.368Z,99.90
2023-12-28T22:20:50.288Z,99.90
2023-12-28T22:23:17.089Z,99.90
2023-12-28T22:25:43.895Z,99.90
2023-12-28T22:28:10.903Z,99.90
2023-12-28T22:30:37.823Z,99.90
2023-12-28T22:33:04.902Z,99.90
2023-12-28T22:35:31.706Z,99.90
2023-12-28T22:37:58.829Z,99.90
2023-12-28T22:40:25.693Z,99.90
2023-12-28T22:42:52.608Z,99.90
2023-12-28T22:45:19.514Z,99.90
2023-12-28T22:47:46.382Z,99.90
2023-12-28T22:50:13.282Z,99.90
2023-12-28T22:52:41.256Z,99.90
2023-12-28T22:55:08.479Z,99.90
2023-12-28T22:57:35.476Z,99.90
2023-12-28T23:00:02.440Z,99.90
2023-12-28T23:02:29.293Z,99.90
2023-12-28T23:04:56.648Z,99.90
2023-12-28T23:07:25.378Z,99.90
2023-12-28T23:09:53.126Z,99.90
2023-12-28T23:12:20.486Z,99.90
2023-12-28T23:14:47.252Z,99.90
2023-12-28T23:17:14.281Z,99.90
2023-12-28T23:19:49.079Z,99.90
2023-12-28T23:22:15.931Z,99.90
2023-12-28T23:24:42.893Z,99.90
2023-12-28T23:27:10.583Z,99.90
2023-12-28T23:29:40.938Z,99.90
2023-12-28T23:32:07.996Z,99.90
2023-12-28T23:34:35.077Z,99.90
2023-12-28T23:37:02.043Z,99.90
2023-12-28T23:39:29.035Z,99.90
2023-12-28T23:41:55.786Z,99.90
2023-12-28T23:44:22.641Z,99.90
2023-12-28T23:46:49.408Z,99.90
2023-12-28T23:49:16.288Z,99.90
2023-12-28T23:51:43.133Z,99.90
2023-12-28T23:54:09.969Z,99.90
2023-12-28T23:56:36.749Z,99.90
2023-12-28T23:59:03.641Z,99.90
